sensor_id;sensor_type;location;lat;lon;timestamp;pressure;altitude;pressure_sealevel;temperature;humidity
66430;BME280;53242;51.694;10.006;2023-07-16T00:01:50;98952.53;;;21.28;81.74
66430;BME280;53242;51.694;10.006;2023-07-16T00:04:13;98967.19;;;21.46;80.38
66430;BME280;53242;51.694;10.006;2023-07-16T00:06:35;98976.34;;;21.40;80.62
66430;BME280;53242;51.694;10.006;2023-07-16T00:08:59;98980.09;;;21.39;80.81
66430;BME280;53242;51.694;10.006;2023-07-16T00:11:21;98985.78;;;21.32;80.74
66430;BME280;53242;51.694;10.006;2023-07-16T00:13:44;99001.31;;;21.46;80.52
66430;BME280;53242;51.694;10.006;2023-07-16T00:16:09;98994.84;;;21.42;80.54
66430;BME280;53242;51.694;10.006;2023-07-16T00:18:31;98983.28;;;21.46;80.57
66430;BME280;53242;51.694;10.006;2023-07-16T00:20:53;98982.59;;;21.30;81.01
66430;BME280;53242;51.694;10.006;2023-07-16T00:23:16;98982.59;;;21.30;81.31
66430;BME280;53242;51.694;10.006;2023-07-16T00:25:38;98979.38;;;21.28;80.99
66430;BME280;53242;51.694;10.006;2023-07-16T00:28:01;98978.59;;;21.28;80.91
66430;BME280;53242;51.694;10.006;2023-07-16T00:30:23;98969.69;;;21.32;80.78
66430;BME280;53242;51.694;10.006;2023-07-16T00:32:46;98975.63;;;21.29;80.66
66430;BME280;53242;51.694;10.006;2023-07-16T00:35:08;98939.34;;;21.37;80.37
66430;BME280;53242;51.694;10.006;2023-07-16T00:37:31;98894.22;;;21.39;79.93
66430;BME280;53242;51.694;10.006;2023-07-16T00:39:53;98860.81;;;21.21;79.79
66430;BME280;53242;51.694;10.006;2023-07-16T00:42:15;98903.94;;;21.30;79.60
66430;BME280;53242;51.694;10.006;2023-07-16T00:44:39;98907.97;;;21.32;79.00
66430;BME280;53242;51.694;10.006;2023-07-16T00:47:02;98915.16;;;21.42;78.53
66430;BME280;53242;51.694;10.006;2023-07-16T00:49:25;98907.41;;;21.35;78.37
66430;BME280;53242;51.694;10.006;2023-07-16T00:51:49;98911.94;;;21.40;77.78
66430;BME280;53242;51.694;10.006;2023-07-16T00:54:13;98916.00;;;21.32;77.96
66430;BME280;53242;51.694;10.006;2023-07-16T00:56:37;98915.50;;;21.30;78.06
66430;BME280;53242;51.694;10.006;2023-07-16T00:59:00;98896.72;;;21.30;77.47
66430;BME280;53242;51.694;10.006;2023-07-16T01:01:22;98881.97;;;21.28;77.27
66430;BME280;53242;51.694;10.006;2023-07-16T01:03:45;98889.75;;;21.29;76.97
66430;BME280;53242;51.694;10.006;2023-07-16T01:06:17;98924.03;;;21.38;76.93
66430;BME280;53242;51.694;10.006;2023-07-16T01:08:51;98951.47;;;21.29;77.08
66430;BME280;53242;51.694;10.006;2023-07-16T01:11:16;98974.31;;;21.27;77.27
66430;BME280;53242;51.694;10.006;2023-07-16T01:13:39;98998.94;;;21.34;77.62
66430;BME280;53242;51.694;10.006;2023-07-16T01:16:03;99008.94;;;21.23;78.17
66430;BME280;53242;51.694;10.006;2023-07-16T01:18:26;99006.25;;;21.23;78.92
66430;BME280;53242;51.694;10.006;2023-07-16T01:20:48;99009.22;;;21.22;79.06
66430;BME280;53242;51.694;10.006;2023-07-16T01:28:44;98991.03;;;21.08;79.24
66430;BME280;53242;51.694;10.006;2023-07-16T01:31:10;98962.59;;;21.07;79.62
66430;BME280;53242;51.694;10.006;2023-07-16T01:33:37;98955.63;;;21.06;79.33
66430;BME280;53242;51.694;10.006;2023-07-16T01:36:00;98957.75;;;21.09;79.15
66430;BME280;53242;51.694;10.006;2023-07-16T01:38:24;98969.56;;;21.08;79.08
66430;BME280;53242;51.694;10.006;2023-07-16T01:40:47;98955.88;;;21.10;79.14
66430;BME280;53242;51.694;10.006;2023-07-16T01:43:09;98961.78;;;21.07;79.25
66430;BME280;53242;51.694;10.006;2023-07-16T01:45:32;98961.00;;;21.06;79.25
66430;BME280;53242;51.694;10.006;2023-07-16T01:48:22;98941.69;;;21.04;80.39
66430;BME280;53242;51.694;10.006;2023-07-16T01:50:46;98937.13;;;20.99;79.74
66430;BME280;53242;51.694;10.006;2023-07-16T01:53:09;98946.34;;;20.88;80.33
66430;BME280;53242;51.694;10.006;2023-07-16T01:55:31;98943.72;;;20.78;80.67
66430;BME280;53242;51.694;10.006;2023-07-16T01:57:54;98952.78;;;20.87;80.33
66430;BME280;53242;51.694;10.006;2023-07-16T02:00:16;98961.03;;;21.01;79.68
66430;BME280;53242;51.694;10.006;2023-07-16T02:02:41;98970.19;;;20.95;79.45
66430;BME280;53242;51.694;10.006;2023-07-16T02:05:04;98981.72;;;20.90;80.20
66430;BME280;53242;51.694;10.006;2023-07-16T02:07:26;98989.25;;;20.93;79.73
66430;BME280;53242;51.694;10.006;2023-07-16T02:09:49;98991.13;;;20.88;79.95
66430;BME280;53242;51.694;10.006;2023-07-16T02:12:12;98988.41;;;20.98;79.73
66430;BME280;53242;51.694;10.006;2023-07-16T02:14:34;98984.66;;;20.94;79.79
66430;BME280;53242;51.694;10.006;2023-07-16T02:16:57;98961.59;;;20.93;79.81
66430;BME280;53242;51.694;10.006;2023-07-16T02:19:21;98935.34;;;20.90;79.83
66430;BME280;53242;51.694;10.006;2023-07-16T02:21:43;98964.84;;;20.90;79.83
66430;BME280;53242;51.694;10.006;2023-07-16T02:24:06;98969.91;;;20.91;79.48
66430;BME280;53242;51.694;10.006;2023-07-16T02:26:29;98948.53;;;20.76;80.02
66430;BME280;53242;51.694;10.006;2023-07-16T02:28:52;98966.16;;;20.92;79.19
66430;BME280;53242;51.694;10.006;2023-07-16T02:31:14;98983.34;;;20.91;78.61
66430;BME280;53242;51.694;10.006;2023-07-16T02:33:37;98973.69;;;20.85;79.22
66430;BME280;53242;51.694;10.006;2023-07-16T02:35:59;98985.78;;;20.82;79.21
66430;BME280;53242;51.694;10.006;2023-07-16T02:38:22;98983.63;;;20.84;78.76
66430;BME280;53242;51.694;10.006;2023-07-16T02:40:45;98997.88;;;20.75;79.11
66430;BME280;53242;51.694;10.006;2023-07-16T02:43:08;98992.22;;;20.76;78.86
66430;BME280;53242;51.694;10.006;2023-07-16T02:45:30;98992.78;;;20.78;78.42
66430;BME280;53242;51.694;10.006;2023-07-16T02:47:52;98989.84;;;20.75;78.34
66430;BME280;53242;51.694;10.006;2023-07-16T02:50:15;99005.38;;;20.78;77.42
66430;BME280;53242;51.694;10.006;2023-07-16T02:52:37;98993.34;;;20.75;77.55
66430;BME280;53242;51.694;10.006;2023-07-16T02:55:00;98993.34;;;20.60;77.68
66430;BME280;53242;51.694;10.006;2023-07-16T02:57:22;98995.50;;;20.58;78.15
66430;BME280;53242;51.694;10.006;2023-07-16T02:59:45;98999.53;;;20.55;78.79
66430;BME280;53242;51.694;10.006;2023-07-16T03:02:07;98997.88;;;20.64;78.42
66430;BME280;53242;51.694;10.006;2023-07-16T03:04:29;99002.75;;;20.57;78.73
66430;BME280;53242;51.694;10.006;2023-07-16T03:06:52;99008.38;;;20.50;79.08
66430;BME280;53242;51.694;10.006;2023-07-16T03:09:14;99016.72;;;20.38;79.63
66430;BME280;53242;51.694;10.006;2023-07-16T03:11:37;99018.34;;;20.34;79.85
66430;BME280;53242;51.694;10.006;2023-07-16T03:13:59;99022.63;;;20.25;80.04
66430;BME280;53242;51.694;10.006;2023-07-16T03:16:22;99021.56;;;20.31;79.81
66430;BME280;53242;51.694;10.006;2023-07-16T03:18:44;99015.66;;;20.29;79.56
66430;BME280;53242;51.694;10.006;2023-07-16T03:21:07;99022.09;;;20.28;79.76
66430;BME280;53242;51.694;10.006;2023-07-16T03:23:30;99022.09;;;20.23;79.97
66430;BME280;53242;51.694;10.006;2023-07-16T03:25:52;99021.03;;;20.24;80.15
66430;BME280;53242;51.694;10.006;2023-07-16T03:28:14;99034.16;;;20.26;80.15
66430;BME280;53242;51.694;10.006;2023-07-16T03:30:37;99033.88;;;20.07;81.41
66430;BME280;53242;51.694;10.006;2023-07-16T03:33:00;99045.94;;;20.14;81.07
66430;BME280;53242;51.694;10.006;2023-07-16T03:35:22;99053.72;;;20.16;80.97
66430;BME280;53242;51.694;10.006;2023-07-16T03:37:44;99047.81;;;20.14;81.29
66430;BME280;53242;51.694;10.006;2023-07-16T03:40:17;99058.81;;;20.07;82.19
66430;BME280;53242;51.694;10.006;2023-07-16T03:42:42;99060.16;;;19.94;82.50
66430;BME280;53242;51.694;10.006;2023-07-16T03:45:05;99069.78;;;19.85;82.67
66430;BME280;53242;51.694;10.006;2023-07-16T03:47:28;99066.31;;;20.00;82.00
66430;BME280;53242;51.694;10.006;2023-07-16T03:49:51;99076.72;;;19.91;82.55
66430;BME280;53242;51.694;10.006;2023-07-16T03:52:14;99082.91;;;19.92;82.32
66430;BME280;53242;51.694;10.006;2023-07-16T03:54:36;99081.56;;;19.84;82.39
66430;BME280;53242;51.694;10.006;2023-07-16T03:56:58;99088.78;;;19.88;82.35
66430;BME280;53242;51.694;10.006;2023-07-16T03:59:21;99090.63;;;19.78;82.57
66430;BME280;53242;51.694;10.006;2023-07-16T04:01:44;99092.75;;;19.81;82.35
66430;BME280;53242;51.694;10.006;2023-07-16T04:04:07;99095.97;;;19.67;82.91
66430;BME280;53242;51.694;10.006;2023-07-16T04:06:29;99095.97;;;19.72;82.44
66430;BME280;53242;51.694;10.006;2023-07-16T04:08:51;99102.94;;;19.74;82.15
66430;BME280;53242;51.694;10.006;2023-07-16T04:11:14;99105.59;;;19.63;82.63
66430;BME280;53242;51.694;10.006;2023-07-16T04:13:36;99115.78;;;19.77;81.55
66430;BME280;53242;51.694;10.006;2023-07-16T04:15:59;99117.41;;;19.78;81.54
66430;BME280;53242;51.694;10.006;2023-07-16T04:18:21;99127.28;;;19.67;81.95
66430;BME280;53242;51.694;10.006;2023-07-16T04:20:44;99124.63;;;19.67;81.84
66430;BME280;53242;51.694;10.006;2023-07-16T04:23:06;99129.16;;;19.66;81.71
66430;BME280;53242;51.694;10.006;2023-07-16T04:25:29;99130.75;;;19.67;81.09
66430;BME280;53242;51.694;10.006;2023-07-16T04:27:51;99132.38;;;19.68;81.13
66430;BME280;53242;51.694;10.006;2023-07-16T04:30:14;99133.66;;;19.55;81.29
66430;BME280;53242;51.694;10.006;2023-07-16T04:32:36;99142.47;;;19.51;81.30
66430;BME280;53242;51.694;10.006;2023-07-16T04:34:58;99144.13;;;19.62;80.59
66430;BME280;53242;51.694;10.006;2023-07-16T04:37:21;99145.72;;;19.58;80.33
66430;BME280;53242;51.694;10.006;2023-07-16T04:39:43;99147.59;;;19.58;79.75
66430;BME280;53242;51.694;10.006;2023-07-16T04:42:06;99152.69;;;19.54;79.93
66430;BME280;53242;51.694;10.006;2023-07-16T04:44:28;99153.50;;;19.60;79.53
66430;BME280;53242;51.694;10.006;2023-07-16T04:46:50;99160.47;;;19.66;78.70
66430;BME280;53242;51.694;10.006;2023-07-16T04:49:13;99156.47;;;19.68;78.81
66430;BME280;53242;51.694;10.006;2023-07-16T04:51:35;99160.22;;;19.72;78.71
66430;BME280;53242;51.694;10.006;2023-07-16T04:53:58;99159.41;;;19.67;78.81
66430;BME280;53242;51.694;10.006;2023-07-16T04:56:20;99162.88;;;19.67;78.37
66430;BME280;53242;51.694;10.006;2023-07-16T04:58:43;99172.53;;;19.74;77.94
66430;BME280;53242;51.694;10.006;2023-07-16T05:01:05;99178.56;;;20.12;76.34
66430;BME280;53242;51.694;10.006;2023-07-16T05:03:27;99177.78;;;20.47;74.61
66430;BME280;53242;51.694;10.006;2023-07-16T05:05:50;99186.41;;;20.75;73.00
66430;BME280;53242;51.694;10.006;2023-07-16T05:08:12;99189.25;;;21.41;70.59
66430;BME280;53242;51.694;10.006;2023-07-16T05:10:35;99192.97;;;21.45;70.02
66430;BME280;53242;51.694;10.006;2023-07-16T05:12:57;99195.53;;;21.81;68.88
66430;BME280;53242;51.694;10.006;2023-07-16T05:15:20;99191.69;;;21.97;67.95
66430;BME280;53242;51.694;10.006;2023-07-16T05:17:42;99199.78;;;21.92;67.93
66430;BME280;53242;51.694;10.006;2023-07-16T05:20:05;99211.41;;;21.77;67.71
66430;BME280;53242;51.694;10.006;2023-07-16T05:22:28;99200.75;;;22.12;66.64
66430;BME280;53242;51.694;10.006;2023-07-16T05:24:50;99210.59;;;22.27;65.82
66430;BME280;53242;51.694;10.006;2023-07-16T05:27:13;99213.66;;;22.10;65.72
66430;BME280;53242;51.694;10.006;2023-07-16T05:29:35;99218.50;;;22.53;64.51
66430;BME280;53242;51.694;10.006;2023-07-16T05:31:57;99224.28;;;22.70;64.21
66430;BME280;53242;51.694;10.006;2023-07-16T05:34:20;99224.13;;;22.56;64.19
66430;BME280;53242;51.694;10.006;2023-07-16T05:36:42;99235.25;;;22.79;63.22
66430;BME280;53242;51.694;10.006;2023-07-16T05:39:06;99240.63;;;22.79;63.27
66430;BME280;53242;51.694;10.006;2023-07-16T05:41:30;99236.47;;;22.62;62.98
66430;BME280;53242;51.694;10.006;2023-07-16T05:43:53;99238.19;;;22.48;62.92
66430;BME280;53242;51.694;10.006;2023-07-16T05:46:15;99240.16;;;22.27;63.66
66430;BME280;53242;51.694;10.006;2023-07-16T05:48:37;99243.41;;;22.69;62.76
66430;BME280;53242;51.694;10.006;2023-07-16T05:51:00;99243.63;;;22.32;63.11
66430;BME280;53242;51.694;10.006;2023-07-16T05:53:22;99253.28;;;22.44;62.59
66430;BME280;53242;51.694;10.006;2023-07-16T05:55:45;99251.22;;;22.65;61.81
66430;BME280;53242;51.694;10.006;2023-07-16T05:58:08;99258.41;;;22.35;62.50
66430;BME280;53242;51.694;10.006;2023-07-16T06:00:31;99253.06;;;22.75;61.66
66430;BME280;53242;51.694;10.006;2023-07-16T06:02:53;99250.94;;;22.66;62.17
66430;BME280;53242;51.694;10.006;2023-07-16T06:05:15;99258.09;;;22.47;62.64
66430;BME280;53242;51.694;10.006;2023-07-16T06:07:38;99260.84;;;22.76;61.67
66430;BME280;53242;51.694;10.006;2023-07-16T06:10:00;99265.81;;;22.93;61.20
66430;BME280;53242;51.694;10.006;2023-07-16T06:12:23;99264.41;;;22.66;61.99
66430;BME280;53242;51.694;10.006;2023-07-16T06:14:45;99268.41;;;23.04;61.00
66430;BME280;53242;51.694;10.006;2023-07-16T06:17:07;99272.19;;;23.03;60.92
66430;BME280;53242;51.694;10.006;2023-07-16T06:19:31;99277.72;;;22.82;60.78
66430;BME280;53242;51.694;10.006;2023-07-16T06:21:53;99281.06;;;22.69;60.88
66430;BME280;53242;51.694;10.006;2023-07-16T06:24:15;99273.88;;;22.93;60.69
66430;BME280;53242;51.694;10.006;2023-07-16T06:26:38;99280.06;;;23.28;59.41
66430;BME280;53242;51.694;10.006;2023-07-16T06:29:00;99288.34;;;22.18;62.41
66430;BME280;53242;51.694;10.006;2023-07-16T06:31:23;99274.34;;;22.21;61.88
66430;BME280;53242;51.694;10.006;2023-07-16T06:33:45;99286.44;;;22.18;61.72
66430;BME280;53242;51.694;10.006;2023-07-16T06:36:09;99279.09;;;22.40;61.66
66430;BME280;53242;51.694;10.006;2023-07-16T06:38:31;99289.53;;;21.91;62.36
66430;BME280;53242;51.694;10.006;2023-07-16T06:40:54;99281.56;;;22.26;61.43
66430;BME280;53242;51.694;10.006;2023-07-16T06:43:17;99283.13;;;22.37;61.17
66430;BME280;53242;51.694;10.006;2023-07-16T06:45:39;99285.84;;;22.27;61.08
66430;BME280;53242;51.694;10.006;2023-07-16T06:48:01;99295.88;;;22.16;61.69
66430;BME280;53242;51.694;10.006;2023-07-16T06:50:24;99296.09;;;22.25;61.38
66430;BME280;53242;51.694;10.006;2023-07-16T06:52:46;99300.00;;;21.88;62.40
66430;BME280;53242;51.694;10.006;2023-07-16T06:55:09;99294.22;;;22.20;61.44
66430;BME280;53242;51.694;10.006;2023-07-16T06:57:31;99294.56;;;22.08;61.08
66430;BME280;53242;51.694;10.006;2023-07-16T06:59:54;99305.78;;;22.21;59.91
66430;BME280;53242;51.694;10.006;2023-07-16T07:02:17;99308.56;;;22.05;60.72
66430;BME280;53242;51.694;10.006;2023-07-16T07:04:39;99300.28;;;21.91;60.65
66430;BME280;53242;51.694;10.006;2023-07-16T07:07:02;99306.44;;;21.87;60.47
66430;BME280;53242;51.694;10.006;2023-07-16T07:09:24;99305.28;;;22.13;59.71
66430;BME280;53242;51.694;10.006;2023-07-16T07:11:46;99304.38;;;22.44;59.26
66430;BME280;53242;51.694;10.006;2023-07-16T07:14:09;99303.38;;;22.14;57.14
66430;BME280;53242;51.694;10.006;2023-07-16T07:16:31;99312.50;;;22.23;55.21
66430;BME280;53242;51.694;10.006;2023-07-16T07:18:54;99312.28;;;22.14;54.67
66430;BME280;53242;51.694;10.006;2023-07-16T07:21:16;99307.31;;;22.42;52.82
66430;BME280;53242;51.694;10.006;2023-07-16T07:23:39;99296.84;;;22.36;52.73
66430;BME280;53242;51.694;10.006;2023-07-16T07:26:02;99299.56;;;22.75;52.00
66430;BME280;53242;51.694;10.006;2023-07-16T07:28:24;99304.09;;;22.85;51.17
66430;BME280;53242;51.694;10.006;2023-07-16T07:30:47;99289.84;;;23.14;50.53
66430;BME280;53242;51.694;10.006;2023-07-16T07:33:09;99306.56;;;23.11;50.58
66430;BME280;53242;51.694;10.006;2023-07-16T07:35:32;99302.16;;;22.91;50.67
66430;BME280;53242;51.694;10.006;2023-07-16T07:37:54;99302.03;;;22.72;50.51
66430;BME280;53242;51.694;10.006;2023-07-16T07:40:17;99307.66;;;23.15;49.47
66430;BME280;53242;51.694;10.006;2023-07-16T07:42:39;99308.34;;;23.26;49.77
66430;BME280;53242;51.694;10.006;2023-07-16T07:45:02;99312.09;;;22.95;48.95
66430;BME280;53242;51.694;10.006;2023-07-16T07:47:24;99309.91;;;22.58;49.93
66430;BME280;53242;51.694;10.006;2023-07-16T07:49:47;99325.34;;;22.31;49.36
66430;BME280;53242;51.694;10.006;2023-07-16T07:52:09;99317.25;;;22.47;48.46
66430;BME280;53242;51.694;10.006;2023-07-16T07:54:32;99321.03;;;22.41;47.64
66430;BME280;53242;51.694;10.006;2023-07-16T07:56:55;99325.34;;;22.42;47.82
66430;BME280;53242;51.694;10.006;2023-07-16T07:59:17;99317.97;;;22.58;48.19
66430;BME280;53242;51.694;10.006;2023-07-16T08:01:40;99318.59;;;22.89;47.10
66430;BME280;53242;51.694;10.006;2023-07-16T08:04:02;99321.91;;;23.15;47.80
66430;BME280;53242;51.694;10.006;2023-07-16T08:06:25;99323.41;;;23.27;48.80
66430;BME280;53242;51.694;10.006;2023-07-16T08:08:48;99324.41;;;23.02;47.79
66430;BME280;53242;51.694;10.006;2023-07-16T08:11:10;99326.72;;;23.19;48.55
66430;BME280;53242;51.694;10.006;2023-07-16T08:13:33;99330.44;;;22.88;48.37
66430;BME280;53242;51.694;10.006;2023-07-16T08:15:55;99328.84;;;22.32;46.65
66430;BME280;53242;51.694;10.006;2023-07-16T08:18:18;99330.72;;;22.42;46.37
66430;BME280;53242;51.694;10.006;2023-07-16T08:20:40;99334.25;;;22.77;46.33
66430;BME280;53242;51.694;10.006;2023-07-16T08:23:05;99325.81;;;22.54;46.95
66430;BME280;53242;51.694;10.006;2023-07-16T08:25:28;99327.09;;;22.67;45.73
66430;BME280;53242;51.694;10.006;2023-07-16T08:27:50;99325.88;;;23.23;45.77
66430;BME280;53242;51.694;10.006;2023-07-16T08:30:13;99327.38;;;23.35;45.28
66430;BME280;53242;51.694;10.006;2023-07-16T08:32:36;99323.66;;;23.84;44.78
66430;BME280;53242;51.694;10.006;2023-07-16T08:34:58;99336.84;;;23.61;45.04
66430;BME280;53242;51.694;10.006;2023-07-16T08:37:21;99328.50;;;23.28;44.90
66430;BME280;53242;51.694;10.006;2023-07-16T08:39:43;99336.38;;;22.85;45.83
66430;BME280;53242;51.694;10.006;2023-07-16T08:42:06;99328.91;;;23.17;44.81
66430;BME280;53242;51.694;10.006;2023-07-16T08:44:31;99327.19;;;23.26;44.57
66430;BME280;53242;51.694;10.006;2023-07-16T08:46:53;99324.22;;;23.57;44.12
66430;BME280;53242;51.694;10.006;2023-07-16T08:49:17;99319.41;;;23.54;43.78
66430;BME280;53242;51.694;10.006;2023-07-16T08:51:41;99322.13;;;23.78;43.96
66430;BME280;53242;51.694;10.006;2023-07-16T08:54:04;99314.25;;;24.06;44.42
66430;BME280;53242;51.694;10.006;2023-07-16T08:56:27;99326.41;;;24.27;44.61
66430;BME280;53242;51.694;10.006;2023-07-16T08:58:49;99342.03;;;24.30;43.99
66430;BME280;53242;51.694;10.006;2023-07-16T09:01:12;99332.31;;;23.81;43.58
66430;BME280;53242;51.694;10.006;2023-07-16T09:03:35;99330.47;;;23.23;44.38
66430;BME280;53242;51.694;10.006;2023-07-16T09:05:58;99329.56;;;23.86;42.79
66430;BME280;53242;51.694;10.006;2023-07-16T09:08:20;99325.03;;;24.49;42.53
66430;BME280;53242;51.694;10.006;2023-07-16T09:10:43;99322.72;;;23.70;44.26
66430;BME280;53242;51.694;10.006;2023-07-16T09:13:05;99335.44;;;24.18;43.67
66430;BME280;53242;51.694;10.006;2023-07-16T09:15:29;99333.59;;;24.56;42.82
66430;BME280;53242;51.694;10.006;2023-07-16T09:17:53;99335.94;;;24.82;43.51
66430;BME280;53242;51.694;10.006;2023-07-16T09:20:17;99322.38;;;24.87;42.25
66430;BME280;53242;51.694;10.006;2023-07-16T09:22:39;99334.97;;;24.92;42.29
66430;BME280;53242;51.694;10.006;2023-07-16T09:25:02;99336.72;;;24.83;42.60
66430;BME280;53242;51.694;10.006;2023-07-16T09:27:29;99334.22;;;25.05;42.28
66430;BME280;53242;51.694;10.006;2023-07-16T09:29:51;99338.22;;;25.08;41.84
66430;BME280;53242;51.694;10.006;2023-07-16T09:32:14;99331.31;;;24.83;42.00
66430;BME280;53242;51.694;10.006;2023-07-16T09:34:36;99331.06;;;25.17;41.45
66430;BME280;53242;51.694;10.006;2023-07-16T09:37:00;99331.78;;;25.04;41.87
66430;BME280;53242;51.694;10.006;2023-07-16T09:39:25;99337.25;;;25.18;41.48
66430;BME280;53242;51.694;10.006;2023-07-16T09:41:48;99347.47;;;25.54;40.57
66430;BME280;53242;51.694;10.006;2023-07-16T09:44:11;99345.53;;;25.40;40.84
66430;BME280;53242;51.694;10.006;2023-07-16T09:46:34;99351.13;;;25.11;41.12
66430;BME280;53242;51.694;10.006;2023-07-16T09:48:56;99351.47;;;24.71;42.67
66430;BME280;53242;51.694;10.006;2023-07-16T09:51:19;99362.63;;;24.40;42.32
66430;BME280;53242;51.694;10.006;2023-07-16T09:53:43;99359.56;;;24.71;40.25
66430;BME280;53242;51.694;10.006;2023-07-16T09:56:08;99357.84;;;25.14;41.68
66430;BME280;53242;51.694;10.006;2023-07-16T09:58:32;99354.00;;;25.01;40.62
66430;BME280;53242;51.694;10.006;2023-07-16T10:00:55;99357.78;;;25.52;38.53
66430;BME280;53242;51.694;10.006;2023-07-16T10:03:18;99357.06;;;25.46;38.85
66430;BME280;53242;51.694;10.006;2023-07-16T10:05:40;99364.22;;;25.70;39.40
66430;BME280;53242;51.694;10.006;2023-07-16T10:08:03;99366.66;;;25.19;38.81
66430;BME280;53242;51.694;10.006;2023-07-16T10:10:52;99384.63;;;24.53;39.64
66430;BME280;53242;51.694;10.006;2023-07-16T10:13:16;99380.06;;;24.48;40.54
66430;BME280;53242;51.694;10.006;2023-07-16T10:15:39;99379.72;;;24.11;41.18
66430;BME280;53242;51.694;10.006;2023-07-16T10:18:02;99369.66;;;23.93;41.43
66430;BME280;53242;51.694;10.006;2023-07-16T10:20:32;99380.22;;;24.13;40.73
66430;BME280;53242;51.694;10.006;2023-07-16T10:22:55;99381.03;;;24.14;40.74
66430;BME280;53242;51.694;10.006;2023-07-16T10:27:40;99377.44;;;24.43;39.79
66430;BME280;53242;51.694;10.006;2023-07-16T10:30:04;99375.44;;;25.11;38.73
66430;BME280;53242;51.694;10.006;2023-07-16T10:32:28;99374.34;;;25.45;38.95
66430;BME280;53242;51.694;10.006;2023-07-16T10:34:50;99366.63;;;25.38;38.71
66430;BME280;53242;51.694;10.006;2023-07-16T10:37:13;99378.53;;;25.37;38.59
66430;BME280;53242;51.694;10.006;2023-07-16T10:39:35;99374.91;;;25.61;38.15
66430;BME280;53242;51.694;10.006;2023-07-16T10:41:58;99367.72;;;25.84;38.58
66430;BME280;53242;51.694;10.006;2023-07-16T10:44:20;99372.22;;;25.89;38.48
66430;BME280;53242;51.694;10.006;2023-07-16T10:46:43;99376.50;;;25.76;36.72
66430;BME280;53242;51.694;10.006;2023-07-16T10:49:06;99384.25;;;25.97;36.13
66430;BME280;53242;51.694;10.006;2023-07-16T10:51:29;99379.88;;;26.15;36.43
66430;BME280;53242;51.694;10.006;2023-07-16T10:53:54;99381.16;;;26.31;36.41
66430;BME280;53242;51.694;10.006;2023-07-16T10:56:19;99386.19;;;25.63;36.92
66430;BME280;53242;51.694;10.006;2023-07-16T10:58:42;99381.44;;;25.08;37.81
66430;BME280;53242;51.694;10.006;2023-07-16T11:01:04;99375.88;;;25.51;36.66
66430;BME280;53242;51.694;10.006;2023-07-16T11:03:27;99376.41;;;25.53;37.00
66430;BME280;53242;51.694;10.006;2023-07-16T11:05:50;99375.75;;;26.03;36.39
66430;BME280;53242;51.694;10.006;2023-07-16T11:08:21;99379.13;;;25.81;36.43
66430;BME280;53242;51.694;10.006;2023-07-16T11:10:44;99374.56;;;26.23;36.34
66430;BME280;53242;51.694;10.006;2023-07-16T11:13:06;99377.34;;;26.46;36.09
66430;BME280;53242;51.694;10.006;2023-07-16T11:15:33;99380.81;;;26.61;35.85
66430;BME280;53242;51.694;10.006;2023-07-16T11:17:55;99377.66;;;26.31;36.27
66430;BME280;53242;51.694;10.006;2023-07-16T11:20:19;99378.16;;;26.97;36.73
66430;BME280;53242;51.694;10.006;2023-07-16T11:22:42;99385.53;;;26.69;36.03
66430;BME280;53242;51.694;10.006;2023-07-16T11:25:11;99387.22;;;26.65;35.37
66430;BME280;53242;51.694;10.006;2023-07-16T11:27:33;99385.97;;;26.99;35.06
66430;BME280;53242;51.694;10.006;2023-07-16T11:30:00;99395.94;;;25.78;35.67
66430;BME280;53242;51.694;10.006;2023-07-16T11:32:43;99383.66;;;26.27;34.46
66430;BME280;53242;51.694;10.006;2023-07-16T11:35:10;99378.25;;;26.27;35.60
66430;BME280;53242;51.694;10.006;2023-07-16T11:37:35;99385.84;;;25.98;35.89
66430;BME280;53242;51.694;10.006;2023-07-16T11:40:09;99385.66;;;25.80;36.05
66430;BME280;53242;51.694;10.006;2023-07-16T11:42:33;99382.19;;;25.47;36.49
66430;BME280;53242;51.694;10.006;2023-07-16T11:44:56;99392.34;;;25.36;36.04
66430;BME280;53242;51.694;10.006;2023-07-16T11:47:19;99383.31;;;25.73;34.91
66430;BME280;53242;51.694;10.006;2023-07-16T11:49:41;99384.72;;;25.71;35.29
66430;BME280;53242;51.694;10.006;2023-07-16T11:52:04;99390.28;;;26.07;35.05
66430;BME280;53242;51.694;10.006;2023-07-16T11:54:27;99377.88;;;26.20;35.41
66430;BME280;53242;51.694;10.006;2023-07-16T11:56:49;99388.25;;;25.71;35.59
66430;BME280;53242;51.694;10.006;2023-07-16T11:59:11;99386.78;;;26.07;35.41
66430;BME280;53242;51.694;10.006;2023-07-16T12:01:34;99380.25;;;25.80;35.08
66430;BME280;53242;51.694;10.006;2023-07-16T12:03:56;99386.44;;;26.50;34.19
66430;BME280;53242;51.694;10.006;2023-07-16T12:06:19;99386.19;;;26.10;33.82
66430;BME280;53242;51.694;10.006;2023-07-16T12:08:41;99381.44;;;25.88;34.59
66430;BME280;53242;51.694;10.006;2023-07-16T12:11:03;99382.00;;;25.57;35.20
66430;BME280;53242;51.694;10.006;2023-07-16T12:13:26;99381.88;;;26.23;35.00
66430;BME280;53242;51.694;10.006;2023-07-16T12:15:48;99382.56;;;25.87;35.67
66430;BME280;53242;51.694;10.006;2023-07-16T12:18:11;99380.19;;;25.52;34.78
66430;BME280;53242;51.694;10.006;2023-07-16T12:20:34;99386.28;;;26.05;34.40
66430;BME280;53242;51.694;10.006;2023-07-16T12:22:56;99380.63;;;25.59;35.30
66430;BME280;53242;51.694;10.006;2023-07-16T12:25:19;99375.94;;;25.93;34.76
66430;BME280;53242;51.694;10.006;2023-07-16T12:27:42;99370.50;;;25.65;34.88
66430;BME280;53242;51.694;10.006;2023-07-16T12:30:05;99366.63;;;26.27;34.78
66430;BME280;53242;51.694;10.006;2023-07-16T12:32:29;99375.84;;;26.40;34.39
66430;BME280;53242;51.694;10.006;2023-07-16T12:34:51;99371.22;;;25.99;35.01
66430;BME280;53242;51.694;10.006;2023-07-16T12:37:14;99375.47;;;26.19;34.46